createdAt,value
2023-04-08T00:01:16.762Z,64.67
2023-04-08T00:02:58.623Z,62.51
2023-04-08T00:04:52.828Z,59.30
2023-04-08T00:06:39.077Z,56.21
2023-04-08T00:08:19.606Z,57.20
2023-04-08T00:09:45.143Z,59.05
2023-04-08T00:11:19.248Z,60.90
2023-04-08T00:13:05.454Z,62.47
2023-04-08T00:14:41.506Z,64.54
2023-04-08T00:16:26.847Z,63.76
2023-04-08T00:18:15.978Z,60.39
2023-04-08T00:20:02.857Z,57.35
2023-04-08T00:21:48.921Z,57.00
2023-04-08T00:23:23.794Z,58.60
2023-04-08T00:25:12.608Z,60.69
2023-04-08T00:26:46.447Z,62.50
2023-04-08T00:28:21.175Z,64.74
2023-04-08T00:30:11.954Z,63.47
2023-04-08T00:31:45.731Z,60.13
2023-04-08T00:33:30.963Z,57.29
2023-04-08T00:35:12.311Z,56.73
2023-04-08T00:36:53.548Z,58.46
2023-04-08T00:38:27.573Z,60.70
2023-04-08T00:40:09.742Z,62.10
2023-04-08T00:42:03.055Z,64.55
2023-04-08T00:43:48.171Z,63.25
2023-04-08T00:45:14.544Z,60.38
2023-04-08T00:46:49.505Z,57.54
2023-04-08T00:48:23.104Z,56.55
2023-04-08T00:50:16.731Z,57.99
2023-04-08T00:52:02.310Z,60.30
2023-04-08T00:53:43.669Z,62.26
2023-04-08T00:55:20.038Z,64.60
2023-04-08T00:57:14.735Z,63.99
2023-04-08T00:58:43.958Z,60.89
2023-04-08T01:00:29.596Z,57.65
2023-04-08T01:02:14.858Z,56.66
2023-04-08T01:04:09.832Z,58.55
2023-04-08T01:05:56.447Z,60.55
2023-04-08T01:07:42.077Z,62.59
2023-04-08T01:09:27.241Z,64.87
2023-04-08T01:11:20.911Z,63.12
2023-04-08T01:12:49.753Z,60.28
2023-04-08T01:14:23.524Z,57.33
2023-04-08T01:16:01.154Z,56.66
2023-04-08T01:17:34.909Z,58.26
2023-04-08T01:19:03.732Z,60.03
2023-04-08T01:20:33.450Z,61.60
2023-04-08T01:22:09.453Z,63.49
2023-04-08T01:23:54.455Z,64.73
2023-04-08T01:25:40.383Z,62.01
2023-04-08T01:27:25.757Z,58.69
2023-04-08T01:29:10.689Z,56.68
2023-04-08T01:30:44.106Z,57.77
2023-04-08T01:32:29.458Z,59.45
2023-04-08T01:34:07.094Z,61.67
2023-04-08T01:36:00.919Z,63.61
2023-04-08T01:37:37.047Z,64.62
2023-04-08T01:39:05.848Z,62.27
2023-04-08T01:40:52.152Z,59.42
2023-04-08T01:42:37.727Z,56.66
2023-04-08T01:44:13.500Z,57.35
2023-04-08T01:46:07.097Z,59.34
2023-04-08T01:47:52.588Z,61.42
2023-04-08T01:49:28.558Z,63.53
2023-04-08T01:51:13.548Z,64.62
2023-04-08T01:52:54.349Z,62.11
2023-04-08T01:54:16.437Z,59.46
2023-04-08T01:56:00.622Z,56.90
2023-04-08T01:57:37.416Z,56.95
2023-04-08T01:59:10.961Z,58.33
2023-04-08T02:00:44.155Z,59.76
2023-04-08T02:02:11.200Z,61.11
2023-04-08T02:03:56.360Z,62.85
2023-04-08T02:05:30.664Z,64.60
2023-04-08T02:07:11.567Z,62.77
2023-04-08T02:08:44.811Z,59.35
2023-04-08T02:10:18.494Z,56.82
2023-04-08T02:12:12.857Z,56.86
2023-04-08T02:14:00.377Z,58.98
2023-04-08T02:15:54.312Z,60.73
2023-04-08T02:17:49.804Z,62.74
2023-04-08T02:19:35.467Z,64.38
2023-04-08T02:21:12.428Z,62.24
2023-04-08T02:22:57.382Z,58.59
2023-04-08T02:24:31.097Z,55.90
2023-04-08T02:26:15.815Z,56.52
2023-04-08T02:27:49.327Z,58.25
2023-04-08T02:29:34.966Z,60.28
2023-04-08T02:31:12.416Z,61.78
2023-04-08T02:33:06.137Z,63.61
2023-04-08T02:34:56.764Z,63.96
2023-04-08T02:36:42.945Z,60.76
2023-04-08T02:38:18.665Z,57.12
2023-04-08T02:39:51.855Z,55.82
2023-04-08T02:41:37.299Z,57.39
2023-04-08T02:43:12.801Z,59.07
2023-04-08T02:44:58.224Z,60.98
2023-04-08T02:46:31.480Z,62.55
2023-04-08T02:48:16.195Z,64.58
2023-04-08T02:50:06.468Z,62.86
2023-04-08T02:51:47.184Z,59.16
2023-04-08T02:53:10.685Z,56.45
2023-04-08T02:54:51.528Z,56.52
2023-04-08T02:56:20.428Z,58.58
2023-04-08T02:57:53.827Z,60.16
2023-04-08T02:59:38.962Z,61.73
2023-04-08T03:01:31.721Z,64.00
2023-04-08T03:03:16.587Z,63.58
2023-04-08T03:04:40.647Z,60.96
2023-04-08T03:06:24.197Z,58.24
2023-04-08T03:07:57.120Z,55.86
2023-04-08T03:09:42.536Z,56.63
2023-04-08T03:11:11.641Z,58.63
2023-04-08T03:12:47.842Z,60.30
2023-04-08T03:14:23.418Z,61.79
2023-04-08T03:16:16.534Z,63.80
2023-04-08T03:17:51.763Z,63.38
2023-04-08T03:19:25.393Z,60.34
2023-04-08T03:23:12.300Z,56.53
2023-04-08T03:25:05.673Z,58.09
2023-04-08T03:26:39.184Z,59.76
2023-04-08T03:28:11.024Z,61.41
2023-04-08T03:29:52.631Z,63.07
2023-04-08T03:31:35.846Z,64.54
2023-04-08T03:33:08.796Z,61.70
2023-04-08T03:35:01.757Z,58.05
2023-04-08T03:36:50.068Z,55.99
2023-04-08T03:38:35.506Z,57.40
2023-04-08T03:40:20.322Z,59.36
2023-04-08T03:41:44.845Z,61.11
2023-04-08T03:43:30.422Z,62.88
2023-04-08T03:44:59.608Z,64.78
2023-04-08T03:46:45.226Z,62.79
2023-04-08T03:48:30.216Z,59.39
2023-04-08T03:50:03.291Z,56.41
2023-04-08T03:51:44.385Z,56.47
2023-04-08T03:53:29.513Z,57.96
2023-04-08T03:55:04.826Z,59.59
2023-04-08T03:56:27.083Z,61.09
2023-04-08T03:58:00.165Z,62.47
2023-04-08T03:59:33.866Z,64.03
2023-04-08T04:01:11.614Z,63.20
2023-04-08T04:02:58.801Z,59.78
2023-04-08T04:04:48.838Z,56.44
2023-04-08T04:06:33.781Z,56.56
2023-04-08T04:08:15.268Z,58.37
2023-04-08T04:10:01.028Z,59.99
2023-04-08T04:11:34.598Z,61.60
2023-04-08T04:13:21.785Z,63.23
2023-04-08T04:14:57.067Z,64.86
2023-04-08T04:16:42.487Z,62.49
2023-04-08T04:18:23.363Z,59.00
2023-04-08T04:20:11.605Z,56.08
2023-04-08T04:21:45.599Z,56.74
2023-04-08T04:23:21.425Z,58.60
2023-04-08T04:24:42.933Z,59.97
2023-04-08T04:26:32.781Z,61.44
2023-04-08T04:28:16.241Z,63.03
2023-04-08T04:29:57.146Z,64.83
2023-04-08T04:31:19.449Z,62.78
2023-04-08T04:33:04.214Z,59.60
2023-04-08T04:34:53.528Z,56.38
2023-04-08T04:36:39.101Z,56.40
2023-04-08T04:38:14.205Z,58.18
2023-04-08T04:40:07.577Z,60.08
2023-04-08T04:42:02.802Z,62.11
2023-04-08T04:43:48.205Z,64.63
2023-04-08T04:45:24.314Z,63.93
2023-04-08T04:47:00.232Z,61.06
2023-04-08T04:48:29.385Z,57.99
2023-04-08T04:50:17.832Z,55.53
2023-04-08T04:51:58.224Z,56.74
2023-04-08T04:53:33.999Z,58.20
2023-04-08T04:55:07.251Z,60.31
2023-04-08T04:56:34.597Z,61.58
2023-04-08T04:58:09.991Z,63.13
2023-04-08T04:59:55.431Z,64.61
2023-04-08T05:01:29.103Z,62.54
2023-04-08T05:03:10.872Z,59.12
2023-04-08T05:04:56.171Z,56.05
2023-04-08T05:06:32.989Z,56.15
2023-04-08T05:08:13.224Z,57.63
2023-04-08T05:09:54.346Z,59.87
2023-04-08T05:11:28.061Z,61.04
2023-04-08T05:13:01.277Z,62.04
2023-04-08T05:14:27.907Z,63.91
2023-04-08T05:16:08.139Z,63.86
2023-04-08T05:17:42.093Z,61.41
2023-04-08T05:19:26.834Z,57.66
2023-04-08T05:21:00.066Z,55.67
2023-04-08T05:22:45.264Z,56.47
2023-04-08T05:24:18.622Z,58.28
2023-04-08T05:26:03.744Z,59.96
2023-04-08T05:27:40.731Z,61.57
2023-04-08T05:29:25.626Z,62.63
2023-04-08T05:30:58.955Z,64.37
2023-04-08T05:32:39.920Z,62.45
2023-04-08T05:34:25.119Z,59.38
2023-04-08T05:36:08.588Z,55.92
2023-04-08T05:37:44.168Z,56.06
2023-04-08T05:39:20.005Z,57.73
2023-04-08T05:41:04.672Z,59.02
2023-04-08T05:42:37.843Z,61.20
2023-04-08T05:44:01.657Z,61.78
2023-04-08T05:45:35.635Z,63.98
2023-04-08T05:47:16.318Z,64.18
2023-04-08T05:49:01.273Z,60.94
2023-04-08T05:50:46.767Z,57.22
2023-04-08T05:52:31.862Z,55.79
2023-04-08T05:54:07.445Z,56.45
2023-04-08T05:55:41.223Z,58.70
2023-04-08T05:57:16.731Z,60.08
2023-04-08T05:58:53.824Z,61.14
2023-04-08T06:00:16.774Z,62.13
2023-04-08T06:02:01.706Z,63.92
2023-04-08T06:03:47.670Z,63.08
2023-04-08T06:05:23.478Z,59.69
2023-04-08T06:06:57.746Z,56.71
2023-04-08T06:08:31.603Z,56.32
2023-04-08T06:10:20.305Z,56.92
2023-04-08T06:11:58.213Z,58.53
2023-04-08T06:13:43.834Z,59.78
2023-04-08T06:15:19.208Z,61.13
2023-04-08T06:16:55.735Z,61.72
2023-04-08T06:18:41.123Z,63.52
2023-04-08T06:20:02.716Z,63.87
2023-04-08T06:21:38.446Z,61.25
2023-04-08T06:22:59.623Z,57.89
2023-04-08T06:24:35.437Z,55.30
2023-04-08T06:26:08.837Z,55.62
2023-04-08T06:27:51.328Z,56.35
2023-04-08T06:29:28.028Z,58.22
2023-04-08T06:31:01.110Z,59.89
2023-04-08T06:32:34.694Z,60.58
2023-04-08T06:34:19.593Z,61.32
2023-04-08T06:36:04.631Z,62.82
2023-04-08T06:37:45.897Z,63.56
2023-04-08T06:39:31.149Z,60.26
2023-04-08T06:41:01.845Z,57.30
2023-04-08T06:42:47.689Z,55.33
2023-04-08T06:44:50.537Z,56.28
2023-04-08T06:46:31.639Z,57.65
2023-04-08T06:48:25.005Z,58.97
2023-04-08T06:50:05.714Z,59.80
2023-04-08T06:51:39.237Z,60.73
2023-04-08T06:53:01.274Z,61.43
2023-04-08T06:54:54.876Z,61.65
2023-04-08T06:56:30.839Z,62.09
2023-04-08T06:58:02.311Z,62.62
2023-04-08T06:59:36.294Z,63.67
2023-04-08T07:01:16.750Z,62.35
2023-04-08T07:02:53.538Z,58.84
2023-04-08T07:04:29.617Z,55.25
2023-04-08T07:06:17.965Z,54.41
2023-04-08T07:08:00.021Z,56.18
2023-04-08T07:09:34.692Z,57.67
2023-04-08T07:11:16.246Z,58.59
2023-04-08T07:12:49.819Z,58.83
2023-04-08T07:14:34.895Z,60.15
2023-04-08T07:16:18.817Z,61.45
2023-04-08T07:18:03.929Z,62.05
2023-04-08T07:19:52.364Z,62.43
2023-04-08T07:21:33.063Z,63.71
2023-04-08T07:23:04.395Z,61.12
2023-04-08T07:24:49.715Z,57.28
2023-04-08T07:26:11.473Z,55.04
2023-04-08T07:27:44.651Z,55.00
2023-04-08T07:29:29.934Z,56.38
2023-04-08T07:31:15.073Z,57.55
2023-04-08T07:33:08.880Z,58.58
2023-04-08T07:34:42.415Z,59.63
2023-04-08T07:36:26.497Z,60.08
2023-04-08T07:38:11.390Z,61.05
2023-04-08T07:39:56.608Z,61.26
2023-04-08T07:41:26.211Z,61.57
2023-04-08T07:43:10.981Z,62.00
2023-04-08T07:45:04.795Z,63.38
2023-04-08T07:46:41.190Z,61.82
2023-04-08T07:48:22.201Z,57.36
2023-04-08T07:49:56.772Z,54.68
2023-04-08T07:51:25.825Z,54.37
2023-04-08T07:52:57.443Z,55.27
2023-04-08T07:54:43.113Z,56.64
2023-04-08T07:56:23.905Z,57.35
2023-04-08T07:57:57.916Z,57.98
2023-04-08T07:59:32.240Z,58.75
2023-04-08T08:01:19.117Z,59.47
2023-04-08T08:02:55.076Z,60.08
2023-04-08T08:04:40.798Z,61.25
2023-04-08T08:06:19.163Z,61.50
2023-04-08T08:08:04.430Z,62.04
2023-04-08T08:09:45.517Z,61.89
2023-04-08T08:11:07.149Z,62.24
2023-04-08T08:12:45.208Z,63.18
2023-04-08T08:14:30.749Z,62.30
2023-04-08T08:16:11.255Z,58.13
2023-04-08T08:17:45.476Z,54.97
2023-04-08T08:19:18.983Z,54.87
2023-04-08T08:20:43.567Z,55.58
2023-04-08T08:22:19.271Z,56.96
2023-04-08T08:23:52.591Z,57.15
2023-04-08T08:25:28.473Z,57.90
2023-04-08T08:27:02.838Z,58.54
2023-04-08T08:28:43.831Z,59.88
2023-04-08T08:30:28.985Z,60.91
2023-04-08T08:32:02.372Z,61.25
2023-04-08T08:33:38.706Z,61.13
2023-04-08T08:35:23.751Z,61.84
2023-04-08T08:37:09.012Z,62.09
2023-04-08T08:38:44.753Z,62.65
2023-04-08T08:40:26.537Z,63.82
2023-04-08T08:42:09.732Z,60.50
2023-04-08T08:43:55.470Z,55.87
2023-04-08T08:45:29.319Z,54.53
2023-04-08T08:47:04.369Z,54.29
2023-04-08T08:48:50.546Z,54.93
2023-04-08T08:50:35.476Z,55.74
2023-04-08T08:52:22.991Z,57.03
2023-04-08T08:54:08.091Z,58.37
2023-04-08T08:57:34.109Z,59.23
2023-04-08T08:59:02.666Z,60.18
2023-04-08T09:00:48.180Z,60.40
2023-04-08T09:02:33.930Z,61.42
2023-04-08T09:04:07.617Z,61.89
2023-04-08T09:05:43.911Z,62.27
2023-04-08T09:07:27.627Z,63.08
2023-04-08T09:09:12.266Z,61.12
2023-04-08T09:10:46.260Z,57.79
2023-04-08T09:12:31.471Z,54.21
2023-04-08T09:14:07.591Z,54.19
2023-04-08T09:15:41.455Z,54.85
2023-04-08T09:17:05.230Z,55.79
2023-04-08T09:18:42.089Z,56.91
2023-04-08T09:20:15.419Z,57.70
2023-04-08T09:21:56.313Z,58.85
2023-04-08T09:23:29.974Z,60.42
2023-04-08T09:25:05.171Z,61.07
2023-04-08T09:26:38.705Z,62.13
2023-04-08T09:28:23.544Z,62.78
2023-04-08T09:29:56.982Z,62.12
2023-04-08T09:31:19.345Z,58.40
2023-04-08T09:33:04.425Z,54.93
2023-04-08T09:34:37.966Z,53.30
2023-04-08T09:36:19.858Z,53.79
2023-04-08T09:37:55.376Z,53.92
2023-04-08T09:39:24.557Z,54.77
2023-04-08T09:41:09.527Z,56.52
2023-04-08T09:42:55.617Z,56.19
2023-04-08T09:44:42.123Z,57.10
2023-04-08T09:46:24.046Z,57.80
2023-04-08T09:47:50.674Z,57.84
2023-04-08T09:49:24.317Z,58.35
2023-04-08T09:50:57.714Z,58.34
2023-04-08T09:52:43.805Z,58.73
2023-04-08T09:54:17.116Z,58.86
2023-04-08T09:55:48.177Z,58.95
2023-04-08T09:57:14.111Z,59.39
2023-04-08T09:59:00.980Z,59.01
2023-04-08T10:00:34.590Z,59.81
2023-04-08T10:02:19.445Z,60.30
2023-04-08T10:04:00.299Z,60.48
2023-04-08T10:05:22.350Z,60.65
2023-04-08T10:07:13.228Z,60.53
2023-04-08T10:08:36.005Z,60.84
2023-04-08T10:10:20.737Z,62.02
2023-04-08T10:11:56.556Z,61.48
2023-04-08T10:13:23.439Z,60.97
2023-04-08T10:15:04.071Z,62.12
2023-04-08T10:16:35.728Z,61.48
2023-04-08T10:18:11.896Z,57.76
2023-04-08T10:19:44.737Z,55.21
2023-04-08T10:21:29.509Z,53.20
2023-04-08T10:23:15.249Z,53.91
2023-04-08T10:27:18.905Z,55.16
2023-04-08T10:29:08.719Z,55.25
2023-04-08T10:30:54.109Z,55.53
2023-04-08T10:32:36.430Z,55.49
2023-04-08T10:34:21.460Z,56.21
2023-04-08T10:35:55.334Z,55.78
2023-04-08T10:37:41.714Z,56.05
2023-04-08T10:39:35.739Z,56.78
2023-04-08T10:41:23.505Z,55.95
2023-04-08T10:42:54.785Z,55.59
2023-04-08T10:44:23.932Z,56.24
2023-04-08T10:46:18.010Z,55.43
2023-04-08T10:48:03.539Z,54.97
2023-04-08T10:49:57.364Z,55.25
2023-04-08T10:51:44.383Z,54.69
2023-04-08T10:53:29.587Z,54.64
2023-04-08T10:55:01.142Z,54.47
2023-04-08T10:56:46.346Z,54.25
2023-04-08T10:58:31.641Z,54.83
2023-04-08T11:00:25.036Z,54.15
2023-04-08T11:02:15.172Z,53.88
2023-04-08T11:03:49.028Z,53.55
2023-04-08T11:05:35.293Z,52.92
2023-04-08T11:07:09.384Z,53.21
2023-04-08T11:08:54.350Z,52.86
2023-04-08T11:10:39.429Z,52.93
2023-04-08T11:12:03.448Z,52.15
2023-04-08T11:13:51.582Z,51.31
2023-04-08T11:15:37.628Z,49.46
2023-04-08T11:17:20.741Z,49.18
2023-04-08T11:18:54.124Z,49.64
2023-04-08T11:20:37.027Z,49.54
2023-04-08T11:22:29.276Z,50.89
2023-04-08T11:24:09.831Z,50.88
2023-04-08T11:25:43.430Z,49.66
2023-04-08T11:27:16.853Z,48.17
2023-04-08T11:28:51.762Z,48.86
2023-04-08T11:30:36.609Z,48.83
2023-04-08T11:32:26.810Z,47.75
2023-04-08T11:34:00.048Z,45.86
2023-04-08T11:35:33.619Z,44.72
2023-04-08T11:37:27.918Z,45.51
2023-04-08T11:39:05.314Z,45.69
2023-04-08T11:40:50.698Z,46.71
2023-04-08T11:42:26.381Z,47.34
2023-04-08T11:43:57.271Z,47.75
2023-04-08T11:45:44.499Z,47.66
2023-04-08T11:47:26.201Z,47.68
2023-04-08T11:48:59.446Z,49.00
2023-04-08T11:50:35.396Z,50.82
2023-04-08T11:52:06.460Z,49.81
2023-04-08T11:53:40.005Z,51.04
2023-04-08T11:55:23.538Z,49.62
2023-04-08T11:57:09.900Z,49.38
2023-04-08T11:58:57.240Z,50.69
2023-04-08T12:00:42.859Z,50.20
2023-04-08T12:02:27.552Z,49.82
2023-04-08T12:04:04.533Z,49.31
2023-04-08T12:05:38.230Z,49.55
2023-04-08T12:07:14.214Z,50.06
2023-04-08T12:09:07.712Z,49.45
2023-04-08T12:10:35.087Z,51.48
2023-04-08T12:12:09.024Z,54.20
2023-04-08T12:13:54.492Z,52.12
2023-04-08T12:15:30.074Z,51.35
2023-04-08T12:17:14.462Z,50.38
2023-04-08T12:19:08.810Z,49.88
2023-04-08T12:20:54.792Z,50.47
2023-04-08T12:22:40.201Z,49.06
2023-04-08T12:24:09.214Z,49.87
2023-04-08T12:25:56.115Z,49.25
2023-04-08T12:27:41.906Z,48.07
2023-04-08T12:29:15.297Z,47.15
2023-04-08T12:30:49.045Z,46.25
2023-04-08T12:32:34.053Z,45.83
2023-04-08T12:33:55.830Z,45.72
2023-04-08T12:35:37.083Z,45.32
2023-04-08T12:37:12.582Z,45.53
2023-04-08T12:38:37.472Z,44.34
2023-04-08T12:40:22.661Z,43.73
2023-04-08T12:42:10.750Z,43.63
2023-04-08T12:43:35.417Z,43.65
2023-04-08T12:45:11.221Z,43.56
2023-04-08T12:46:50.282Z,44.81
2023-04-08T12:48:14.107Z,45.43
2023-04-08T12:49:49.805Z,44.56
2023-04-08T12:51:26.807Z,44.68
2023-04-08T12:52:50.827Z,45.28
2023-04-08T12:54:20.856Z,45.12
2023-04-08T12:56:10.145Z,44.69
2023-04-08T12:57:34.619Z,44.64
2023-04-08T12:59:00.907Z,44.54
2023-04-08T13:00:46.220Z,46.25
2023-04-08T13:02:31.912Z,46.15
2023-04-08T13:04:08.445Z,46.22
2023-04-08T13:05:43.088Z,46.25
2023-04-08T13:07:24.498Z,45.77
2023-04-08T13:08:57.712Z,45.86
2023-04-08T13:10:43.124Z,46.48
2023-04-08T13:12:04.996Z,45.31
2023-04-08T13:13:35.005Z,45.31
2023-04-08T13:15:08.292Z,45.65
2023-04-08T13:16:42.166Z,45.65
2023-04-08T13:18:04.935Z,45.44
2023-04-08T13:19:49.871Z,43.94
2023-04-08T13:21:21.569Z,42.90
2023-04-08T13:22:54.906Z,41.50
2023-04-08T13:24:21.263Z,41.01
2023-04-08T13:25:42.842Z,41.88
2023-04-08T13:27:16.044Z,41.27
2023-04-08T13:28:53.765Z,40.42
2023-04-08T13:30:30.474Z,40.24
2023-04-08T13:32:15.796Z,38.90
2023-04-08T13:33:42.716Z,37.95
2023-04-08T13:35:27.934Z,38.03
2023-04-08T13:36:59.484Z,39.10
2023-04-08T13:38:45.207Z,39.83
2023-04-08T13:40:18.633Z,39.55
2023-04-08T13:41:52.810Z,37.96
2023-04-08T13:43:17.217Z,37.50
2023-04-08T13:44:50.879Z,37.60
2023-04-08T13:46:17.147Z,37.61
2023-04-08T13:47:39.474Z,37.50
2023-04-08T13:49:16.791Z,38.07
2023-04-08T13:50:50.180Z,38.44
2023-04-08T13:52:26.115Z,38.97
2023-04-08T13:53:59.550Z,39.17
2023-04-08T13:55:32.942Z,39.02
2023-04-08T13:57:17.538Z,38.40
2023-04-08T13:58:49.965Z,38.13
2023-04-08T14:00:28.504Z,38.22
2023-04-08T14:02:13.633Z,38.07
2023-04-08T14:04:07.363Z,38.86
2023-04-08T14:05:38.842Z,38.49
2023-04-08T14:07:19.202Z,38.15
2023-04-08T14:08:43.353Z,38.34
2023-04-08T14:10:05.098Z,38.93
2023-04-08T14:11:46.003Z,39.23
2023-04-08T14:13:21.480Z,39.48
2023-04-08T14:14:55.427Z,39.88
2023-04-08T14:16:41.658Z,40.81
2023-04-08T14:18:17.586Z,40.80
2023-04-08T14:19:41.868Z,41.23
2023-04-08T14:21:26.800Z,42.00
2023-04-08T14:23:00.591Z,41.61
2023-04-08T14:24:24.873Z,41.97
2023-04-08T14:26:10.042Z,42.25
2023-04-08T14:27:58.858Z,41.97
2023-04-08T14:29:32.251Z,42.60
2023-04-08T14:31:06.144Z,43.02
2023-04-08T14:32:52.046Z,42.03
2023-04-08T14:34:25.735Z,41.85
2023-04-08T14:35:56.823Z,41.89
2023-04-08T14:37:33.515Z,41.92
2023-04-08T14:39:06.940Z,41.69
2023-04-08T14:40:52.267Z,42.67
2023-04-08T14:42:37.266Z,43.45
2023-04-08T14:44:12.490Z,43.49
2023-04-08T14:45:55.787Z,43.81
2023-04-08T14:47:19.868Z,41.91
2023-04-08T14:49:04.714Z,42.49
2023-04-08T14:50:30.785Z,42.30
2023-04-08T14:52:15.905Z,42.04
2023-04-08T14:53:49.813Z,41.92
2023-04-08T14:55:25.399Z,42.52
2023-04-08T14:57:03.998Z,42.40
2023-04-08T14:58:39.924Z,42.30
2023-04-08T15:00:12.163Z,42.78
2023-04-08T15:01:45.907Z,43.57
2023-04-08T15:03:11.144Z,43.96
2023-04-08T15:05:01.100Z,44.11
2023-04-08T15:06:38.991Z,43.63
2023-04-08T15:08:14.977Z,44.23
2023-04-08T15:09:48.522Z,44.45
2023-04-08T15:11:10.569Z,44.62
2023-04-08T15:12:56.791Z,44.95
2023-04-08T15:14:21.070Z,44.87
2023-04-08T15:15:43.321Z,45.14
2023-04-08T15:17:12.527Z,45.42
2023-04-08T15:18:41.916Z,45.50
2023-04-08T15:20:22.829Z,45.99
2023-04-08T15:22:09.117Z,45.40
2023-04-08T15:23:44.885Z,46.00
2023-04-08T15:25:30.335Z,45.98
2023-04-08T15:27:06.927Z,45.59
2023-04-08T15:28:44.244Z,45.72
2023-04-08T15:30:29.404Z,46.34
2023-04-08T15:32:05.465Z,46.46
2023-04-08T15:33:41.162Z,46.68
2023-04-08T15:35:10.060Z,47.11
2023-04-08T15:37:06.785Z,47.39
2023-04-08T15:38:49.840Z,47.49
2023-04-08T15:40:35.067Z,47.65
2023-04-08T15:42:14.592Z,48.04
2023-04-08T15:43:48.604Z,48.74
2023-04-08T15:45:24.264Z,48.97
2023-04-08T15:47:05.327Z,49.59
2023-04-08T15:48:39.162Z,50.06
2023-04-08T15:50:14.845Z,50.65
2023-04-08T15:51:51.128Z,50.89
2023-04-08T15:53:31.631Z,50.88
2023-04-08T15:55:02.676Z,51.17
2023-04-08T15:56:29.432Z,51.36
2023-04-08T15:58:05.607Z,51.57
2023-04-08T15:59:39.783Z,51.56
2023-04-08T16:01:13.530Z,52.02
2023-04-08T16:02:47.533Z,52.12
2023-04-08T16:04:21.669Z,52.07
2023-04-08T16:06:07.822Z,52.18
2023-04-08T16:07:49.156Z,52.55
2023-04-08T16:09:31.789Z,53.20
2023-04-08T16:11:18.032Z,53.10
2023-04-08T16:13:03.246Z,53.34
2023-04-08T16:14:36.565Z,53.66
2023-04-08T16:16:12.259Z,53.79
2023-04-08T16:17:45.854Z,53.92
2023-04-08T16:19:14.833Z,54.08
2023-04-08T16:20:37.143Z,54.57
2023-04-08T16:22:21.583Z,55.00
2023-04-08T16:23:54.975Z,55.33
2023-04-08T16:25:40.231Z,55.99
2023-04-08T16:29:23.142Z,56.41
2023-04-08T16:30:51.905Z,56.60
2023-04-08T16:32:38.806Z,56.89
2023-04-08T16:34:05.123Z,57.01
2023-04-08T16:35:50.527Z,56.77
2023-04-08T16:37:35.732Z,56.74
2023-04-08T16:39:29.798Z,56.94
2023-04-08T16:41:22.779Z,57.03
2023-04-08T16:43:16.308Z,57.45
2023-04-08T16:45:08.206Z,57.20
2023-04-08T16:46:53.603Z,57.54
2023-04-08T16:48:47.387Z,57.92
2023-04-08T16:50:32.587Z,57.83
2023-04-08T16:52:08.876Z,58.03
2023-04-08T16:54:02.221Z,58.24
2023-04-08T16:55:35.902Z,58.42
2023-04-08T16:57:09.335Z,58.40
2023-04-08T16:58:51.251Z,58.38
2023-04-08T17:00:34.685Z,58.61
2023-04-08T17:02:08.189Z,59.01
2023-04-08T17:03:49.948Z,59.33
2023-04-08T17:05:35.397Z,59.55
2023-04-08T17:07:09.148Z,59.63
2023-04-08T17:08:43.598Z,60.03
2023-04-08T17:10:28.949Z,60.01
2023-04-08T17:11:55.560Z,59.88
2023-04-08T17:13:23.494Z,60.18
2023-04-08T17:15:05.796Z,60.24
2023-04-08T17:16:40.088Z,60.04
2023-04-08T17:18:20.954Z,59.99
2023-04-08T17:19:56.734Z,60.12
2023-04-08T17:21:42.609Z,59.98
2023-04-08T17:23:27.569Z,60.20
2023-04-08T17:25:21.145Z,60.31
2023-04-08T17:27:01.608Z,60.49
2023-04-08T17:28:35.373Z,60.71
2023-04-08T17:30:20.825Z,60.55
2023-04-08T17:31:54.725Z,60.29
2023-04-08T17:33:30.042Z,60.51
2023-04-08T17:35:05.519Z,60.30
2023-04-08T17:36:39.823Z,60.39
2023-04-08T17:38:20.600Z,60.57
2023-04-08T17:40:15.796Z,60.28
2023-04-08T17:41:49.137Z,60.74
2023-04-08T17:43:25.174Z,60.82
2023-04-08T17:44:58.426Z,61.00
2023-04-08T17:46:22.335Z,60.73
2023-04-08T17:48:09.416Z,61.43
2023-04-08T17:49:44.096Z,60.91
2023-04-08T17:51:19.754Z,61.64
2023-04-08T17:52:51.096Z,61.17
2023-04-08T17:54:26.687Z,61.03
2023-04-08T17:56:13.776Z,61.60
2023-04-08T17:57:54.861Z,61.43
2023-04-08T17:59:40.602Z,61.58
2023-04-08T18:01:02.335Z,61.58
2023-04-08T18:02:32.295Z,62.16
2023-04-08T18:04:17.901Z,62.02
2023-04-08T18:06:12.826Z,62.10
2023-04-08T18:08:07.806Z,61.87
2023-04-08T18:09:48.912Z,61.86
2023-04-08T18:11:30.089Z,62.16
2023-04-08T18:13:07.989Z,62.10
2023-04-08T18:14:45.699Z,62.48
2023-04-08T18:16:18.881Z,62.99
2023-04-08T18:18:05.221Z,60.66
2023-04-08T18:19:38.976Z,56.56
2023-04-08T18:21:33.796Z,54.14
2023-04-08T18:23:00.169Z,54.27
2023-04-08T18:24:45.866Z,55.00
2023-04-08T18:26:14.916Z,55.82
2023-04-08T18:27:43.681Z,56.66
2023-04-08T18:29:18.838Z,57.37
2023-04-08T18:30:43.344Z,57.87
2023-04-08T18:32:25.752Z,58.40
2023-04-08T18:33:48.211Z,58.93
2023-04-08T18:35:10.098Z,59.34
2023-04-08T18:36:44.351Z,59.46
2023-04-08T18:38:13.689Z,59.94
2023-04-08T18:39:50.127Z,60.25
2023-04-08T18:41:34.806Z,60.46
2023-04-08T18:43:15.252Z,60.76
2023-04-08T18:44:49.184Z,60.98
2023-04-08T18:46:25.141Z,61.28
2023-04-08T18:48:06.111Z,61.42
2023-04-08T18:49:38.808Z,61.52
2023-04-08T18:51:12.822Z,62.02
2023-04-08T18:52:49.029Z,62.33
2023-04-08T18:54:25.925Z,63.14
2023-04-08T18:55:49.802Z,62.01
2023-04-08T18:57:11.606Z,59.03
2023-04-08T18:58:48.448Z,55.52
2023-04-08T19:00:22.791Z,54.18
2023-04-08T19:02:02.737Z,54.70
2023-04-08T19:03:36.150Z,55.58
2023-04-08T19:04:59.746Z,56.38
2023-04-08T19:06:35.873Z,57.27
2023-04-08T19:08:09.403Z,57.99
2023-04-08T19:09:43.551Z,58.63
2023-04-08T19:11:28.672Z,59.37
2023-04-08T19:12:51.387Z,59.58
2023-04-08T19:14:27.610Z,59.89
2023-04-08T19:16:01.799Z,60.19
2023-04-08T19:17:24.338Z,60.58
2023-04-08T19:18:48.375Z,60.83
2023-04-08T19:20:33.816Z,61.08
2023-04-08T19:22:07.511Z,61.31
2023-04-08T19:23:32.538Z,61.57
2023-04-08T19:24:55.271Z,61.90
2023-04-08T19:26:24.783Z,62.11
2023-04-08T19:27:46.406Z,62.23
2023-04-08T19:29:31.436Z,63.16
2023-04-08T19:31:05.021Z,62.12
2023-04-08T19:32:35.025Z,58.73
2023-04-08T19:34:15.212Z,55.31
2023-04-08T19:35:37.709Z,54.25
2023-04-08T19:37:07.251Z,54.98
2023-04-08T19:38:36.941Z,55.73
2023-04-08T19:39:58.945Z,56.58
2023-04-08T19:41:28.257Z,57.36
2023-04-08T19:42:52.542Z,57.94
2023-04-08T19:44:14.606Z,58.53
2023-04-08T19:45:36.727Z,58.95
2023-04-08T19:47:10.676Z,59.41
2023-04-08T19:48:56.126Z,60.19
2023-04-08T19:50:32.837Z,60.31
2023-04-08T19:52:06.361Z,60.93
2023-04-08T19:53:58.919Z,61.21
2023-04-08T19:55:35.065Z,61.52
2023-04-08T19:57:15.933Z,61.78
2023-04-08T19:58:50.124Z,62.34
2023-04-08T20:00:23.878Z,62.98
2023-04-08T20:02:08.718Z,61.79
2023-04-08T20:03:32.979Z,58.46
2023-04-08T20:05:26.694Z,54.86
2023-04-08T20:07:12.226Z,54.72
2023-04-08T20:08:42.115Z,55.48
2023-04-08T20:10:03.775Z,56.31
2023-04-08T20:11:28.217Z,57.11
2023-04-08T20:12:52.095Z,57.75
2023-04-08T20:14:37.966Z,58.46
2023-04-08T20:16:18.514Z,58.99
2023-04-08T20:17:40.117Z,59.62
2023-04-08T20:19:03.998Z,60.11
2023-04-08T20:20:39.624Z,60.43
2023-04-08T20:22:03.224Z,60.76
2023-04-08T20:23:32.749Z,61.00
2023-04-08T20:25:08.246Z,61.61
2023-04-08T20:26:41.571Z,61.77
2023-04-08T20:28:30.934Z,62.29
2023-04-08T20:30:07.418Z,62.57
2023-04-08T20:31:29.703Z,63.45
2023-04-08T20:33:21.227Z,61.39
2023-04-08T20:34:56.958Z,56.78
2023-04-08T20:36:25.761Z,54.90
2023-04-08T20:38:01.105Z,55.05
2023-04-08T20:39:41.948Z,56.07
2023-04-08T20:41:15.206Z,57.22
2023-04-08T20:42:50.372Z,58.00
2023-04-08T20:44:32.812Z,58.71
2023-04-08T20:46:17.851Z,59.55
2023-04-08T20:48:00.186Z,60.48
2023-04-08T20:49:50.810Z,61.02
2023-04-08T20:51:33.212Z,61.69
2023-04-08T20:53:13.813Z,62.18
2023-04-08T20:54:50.101Z,62.70
2023-04-08T20:56:23.802Z,63.48
2023-04-08T20:58:13.846Z,61.15
2023-04-08T21:00:02.659Z,56.65
2023-04-08T21:01:48.141Z,54.77
2023-04-08T21:03:33.260Z,55.56
2023-04-08T21:05:02.427Z,56.46
2023-04-08T21:06:24.537Z,57.54
2023-04-08T21:08:09.439Z,58.42
2023-04-08T21:09:45.518Z,59.23
2023-04-08T21:11:16.913Z,59.93
2023-04-08T21:12:50.180Z,60.91
2023-04-08T21:14:14.154Z,61.77